createdAt,value
2018-11-22T00:00:42.400Z,26.40
2018-11-22T00:01:47.651Z,23.35
2018-11-22T00:02:54.542Z,23.92
2018-11-22T00:03:59.902Z,27.05
2018-11-22T00:05:05.731Z,25.97
2018-11-22T00:06:11.110Z,25.02
2018-11-22T00:07:16.576Z,25.48
2018-11-22T00:08:22.711Z,25.32
2018-11-22T00:09:28.200Z,25.70
2018-11-22T00:10:34.267Z,22.70
2018-11-22T00:11:39.983Z,24.95
2018-11-22T00:12:45.501Z,27.48
2018-11-22T00:13:50.993Z,28.90
2018-11-22T00:14:56.276Z,23.92
2018-11-22T00:16:01.946Z,24.60
2018-11-22T00:17:07.572Z,27.77
2018-11-22T00:18:12.812Z,27.10
2018-11-22T00:19:18.211Z,26.17
2018-11-22T00:20:24.457Z,20.75
2018-11-22T00:21:30.604Z,24.15
2018-11-22T00:22:36.007Z,24.18
2018-11-22T00:23:42.349Z,26.33
2018-11-22T00:24:48.025Z,25.62
2018-11-22T00:25:53.380Z,26.07
2018-11-22T00:26:59.775Z,25.48
2018-11-22T00:28:05.265Z,25.82
2018-11-22T00:29:10.671Z,26.55
2018-11-22T00:30:20.994Z,25.23
2018-11-22T00:31:26.362Z,26.70
2018-11-22T00:32:31.624Z,23.80
2018-11-22T00:33:37.021Z,28.23
2018-11-22T00:34:42.746Z,24.77
2018-11-22T00:35:48.535Z,24.75
2018-11-22T00:36:53.877Z,28.60
2018-11-22T00:37:59.478Z,22.98
2018-11-22T00:39:07.739Z,22.48
2018-11-22T00:40:18.441Z,25.37
2018-11-22T00:41:23.775Z,23.12
2018-11-22T00:42:29.166Z,23.00
2018-11-22T00:43:34.658Z,25.72
2018-11-22T00:44:39.949Z,28.85
2018-11-22T00:45:46.229Z,25.68
2018-11-22T00:46:51.542Z,24.40
2018-11-22T00:47:57.051Z,24.27
2018-11-22T00:49:02.424Z,27.07
2018-11-22T00:50:09.259Z,23.98
2018-11-22T00:51:17.599Z,22.55
2018-11-22T00:52:26.504Z,24.67
2018-11-22T00:53:31.835Z,25.30
2018-11-22T00:54:37.281Z,25.80
2018-11-22T00:55:42.488Z,25.25
2018-11-22T00:56:48.162Z,23.40
2018-11-22T00:57:54.501Z,23.25
2018-11-22T00:59:02.678Z,24.77
2018-11-22T01:00:13.122Z,27.40
2018-11-22T01:01:18.368Z,29.02
2018-11-22T01:02:23.730Z,24.65
2018-11-22T01:03:29.021Z,27.15
2018-11-22T01:04:34.364Z,24.45
2018-11-22T01:05:39.719Z,23.47
2018-11-22T01:06:46.421Z,24.23
2018-11-22T01:07:51.799Z,26.33
2018-11-22T01:08:57.188Z,25.45
2018-11-22T01:10:02.556Z,28.23
2018-11-22T01:11:08.082Z,28.00
2018-11-22T01:12:13.396Z,25.48
2018-11-22T01:13:18.798Z,23.30
2018-11-22T01:14:24.203Z,26.85
2018-11-22T01:15:29.651Z,24.10
2018-11-22T01:16:35.017Z,25.65
2018-11-22T01:17:40.225Z,27.98
2018-11-22T01:18:45.618Z,23.02
2018-11-22T01:19:51.035Z,26.73
2018-11-22T01:20:56.385Z,28.32
2018-11-22T01:22:01.986Z,25.80
2018-11-22T01:23:07.419Z,28.77
2018-11-22T01:24:12.687Z,25.43
2018-11-22T01:25:19.864Z,25.02
2018-11-22T01:26:25.250Z,25.12
2018-11-22T01:27:30.562Z,23.22
2018-11-22T01:28:36.058Z,28.75
2018-11-22T01:29:41.782Z,25.90
2018-11-22T01:30:47.078Z,30.12
2018-11-22T01:31:52.323Z,25.57
2018-11-22T01:32:58.335Z,26.73
2018-11-22T01:34:03.576Z,27.07
2018-11-22T01:35:09.972Z,21.73
2018-11-22T01:36:15.578Z,26.23
2018-11-22T01:37:21.094Z,24.82
2018-11-22T01:38:26.398Z,25.55
2018-11-22T01:39:31.695Z,24.07
2018-11-22T01:40:37.017Z,25.05
2018-11-22T01:41:42.423Z,24.75
2018-11-22T01:42:48.817Z,26.52
2018-11-22T01:43:54.089Z,25.62
2018-11-22T01:45:00.846Z,25.05
2018-11-22T01:46:06.560Z,25.50
2018-11-22T01:47:12.042Z,24.15
2018-11-22T01:48:17.669Z,27.17
2018-11-22T01:49:23.521Z,27.42
2018-11-22T01:50:28.987Z,25.40
2018-11-22T01:51:34.576Z,26.00
2018-11-22T01:52:40.845Z,27.65
2018-11-22T01:53:46.198Z,26.07
2018-11-22T01:54:51.620Z,26.25
2018-11-22T01:55:57.017Z,28.73
2018-11-22T01:57:02.495Z,23.85
2018-11-22T01:58:07.815Z,26.70
2018-11-22T01:59:13.751Z,26.33
2018-11-22T02:00:21.910Z,26.90
2018-11-22T02:01:27.867Z,25.08
2018-11-22T02:02:33.368Z,26.30
2018-11-22T02:03:38.977Z,22.22
2018-11-22T02:04:44.338Z,25.45
2018-11-22T02:05:49.938Z,26.93
2018-11-22T02:06:55.247Z,27.60
2018-11-22T02:08:00.649Z,27.80
2018-11-22T02:09:09.016Z,28.40
2018-11-22T02:10:15.496Z,28.00
2018-11-22T02:11:20.885Z,28.85
2018-11-22T02:12:26.562Z,29.23
2018-11-22T02:13:31.801Z,22.30
2018-11-22T02:14:37.115Z,27.07
2018-11-22T02:15:42.723Z,28.35
2018-11-22T02:16:48.117Z,25.90
2018-11-22T02:17:53.389Z,26.95
2018-11-22T02:18:58.869Z,25.17
2018-11-22T02:20:04.548Z,29.25
2018-11-22T02:21:09.979Z,28.83
2018-11-22T02:22:16.108Z,24.67
2018-11-22T02:23:21.674Z,27.37
2018-11-22T02:24:27.189Z,27.50
2018-11-22T02:25:32.432Z,26.75
2018-11-22T02:26:38.948Z,24.90
2018-11-22T02:27:44.485Z,28.83
2018-11-22T02:28:50.203Z,26.40
2018-11-22T02:29:55.638Z,27.10
2018-11-22T02:31:01.254Z,27.67
2018-11-22T02:32:07.098Z,29.37
2018-11-22T02:33:14.970Z,23.83
2018-11-22T02:34:20.439Z,28.10
2018-11-22T02:35:26.377Z,27.13
2018-11-22T02:36:31.831Z,30.08
2018-11-22T02:37:37.541Z,27.42
2018-11-22T02:38:44.350Z,28.85
2018-11-22T02:39:49.883Z,27.87
2018-11-22T02:40:55.319Z,29.12
2018-11-22T02:42:00.683Z,28.60
2018-11-22T02:43:10.275Z,27.35
2018-11-22T02:44:18.851Z,29.45
2018-11-22T02:45:25.997Z,25.95
2018-11-22T02:46:31.586Z,31.87
2018-11-22T02:47:38.414Z,29.05
2018-11-22T02:48:43.041Z,31.23
2018-11-22T02:49:48.306Z,27.82
2018-11-22T02:50:57.103Z,27.60
2018-11-22T02:52:02.531Z,29.02
2018-11-22T02:53:08.103Z,29.00
2018-11-22T02:54:13.420Z,27.90
2018-11-22T02:55:18.681Z,30.32
2018-11-22T02:56:23.993Z,29.63
2018-11-22T02:57:29.436Z,29.40
2018-11-22T02:58:35.121Z,34.13
2018-11-22T02:59:40.451Z,27.75
2018-11-22T03:00:46.805Z,28.95
2018-11-22T03:01:52.153Z,30.55
2018-11-22T03:02:58.273Z,30.12
2018-11-22T03:04:03.697Z,27.95
2018-11-22T03:05:09.024Z,31.00
2018-11-22T03:06:14.550Z,28.80
2018-11-22T03:07:19.856Z,30.72
2018-11-22T03:08:25.197Z,32.75
2018-11-22T03:09:30.543Z,28.15
2018-11-22T03:10:35.947Z,28.10
2018-11-22T03:11:41.925Z,30.20
2018-11-22T03:12:48.253Z,33.85
2018-11-22T03:13:53.595Z,30.15
2018-11-22T03:14:59.797Z,30.88
2018-11-22T03:16:05.388Z,32.90
2018-11-22T03:17:11.618Z,32.85
2018-11-22T03:18:17.453Z,35.13
2018-11-22T03:19:22.812Z,34.10
2018-11-22T03:20:28.323Z,29.65
2018-11-22T03:21:33.827Z,31.80
2018-11-22T03:22:39.962Z,31.42
2018-11-22T03:23:45.196Z,29.42
2018-11-22T03:24:50.507Z,31.27
2018-11-22T03:25:55.924Z,33.40
2018-11-22T03:27:01.280Z,38.83
2018-11-22T03:28:06.751Z,32.70
2018-11-22T03:29:12.013Z,33.75
2018-11-22T03:30:18.563Z,34.27
2018-11-22T03:31:25.100Z,34.50
2018-11-22T03:32:30.422Z,32.08
2018-11-22T03:33:35.691Z,31.42
2018-11-22T03:34:40.963Z,34.05
2018-11-22T03:35:46.299Z,29.32
2018-11-22T03:36:51.625Z,33.83
2018-11-22T03:37:57.242Z,33.13
2018-11-22T03:39:03.328Z,36.50
2018-11-22T03:40:10.914Z,35.08
2018-11-22T03:41:16.430Z,32.23
2018-11-22T03:42:21.947Z,29.82
2018-11-22T03:43:27.343Z,32.23
2018-11-22T03:44:32.549Z,31.17
2018-11-22T03:45:37.884Z,33.15
2018-11-22T03:46:43.140Z,31.48
2018-11-22T03:47:48.477Z,32.53
2018-11-22T03:48:54.218Z,32.25
2018-11-22T03:50:00.413Z,38.70
2018-11-22T03:51:06.151Z,33.10
2018-11-22T03:52:11.590Z,38.28
2018-11-22T03:53:17.337Z,32.23
2018-11-22T03:54:22.652Z,30.75
2018-11-22T03:55:28.069Z,33.67
2018-11-22T03:56:33.451Z,34.30
2018-11-22T03:57:39.336Z,33.25
2018-11-22T03:58:44.735Z,35.65
2018-11-22T03:59:50.145Z,34.80
2018-11-22T04:00:55.535Z,29.50
2018-11-22T04:02:03.496Z,31.30
2018-11-22T04:03:08.751Z,33.78
2018-11-22T04:04:14.391Z,34.65
2018-11-22T04:05:21.258Z,35.48
2018-11-22T04:06:26.705Z,35.00
2018-11-22T04:07:31.960Z,37.65
2018-11-22T04:08:37.447Z,41.65
2018-11-22T04:09:42.923Z,39.75
2018-11-22T04:10:48.317Z,36.63
2018-11-22T04:11:53.645Z,35.80
2018-11-22T04:12:59.083Z,37.25
2018-11-22T04:14:04.568Z,32.75
2018-11-22T04:15:11.093Z,41.23
2018-11-22T04:16:17.028Z,36.70
2018-11-22T04:17:22.432Z,38.30
2018-11-22T04:18:28.140Z,34.55
2018-11-22T04:19:33.401Z,33.78
2018-11-22T04:20:38.745Z,37.03
2018-11-22T04:21:46.096Z,34.60
2018-11-22T04:22:51.664Z,36.23
2018-11-22T04:23:56.906Z,32.38
2018-11-22T04:25:02.164Z,37.05
2018-11-22T04:26:07.689Z,32.63
2018-11-22T04:27:13.011Z,41.33
2018-11-22T04:28:18.363Z,40.25
2018-11-22T04:29:23.745Z,39.35
2018-11-22T04:30:33.549Z,34.35
2018-11-22T04:31:38.785Z,33.50
2018-11-22T04:32:45.335Z,38.13
2018-11-22T04:33:50.618Z,37.67
2018-11-22T04:34:56.144Z,40.30
2018-11-22T04:36:01.376Z,32.73
2018-11-22T04:37:07.633Z,37.75
2018-11-22T04:38:12.863Z,39.03
2018-11-22T04:39:18.375Z,35.70
2018-11-22T04:40:24.924Z,38.00
2018-11-22T04:41:30.272Z,43.50
2018-11-22T04:42:35.637Z,41.10
2018-11-22T04:43:40.974Z,40.28
2018-11-22T04:44:46.376Z,36.05
2018-11-22T04:45:51.694Z,37.78
2018-11-22T04:46:57.408Z,35.95
2018-11-22T04:48:04.617Z,36.38
2018-11-22T04:49:09.879Z,41.08
2018-11-22T04:50:16.677Z,36.60
2018-11-22T04:51:22.391Z,34.78
2018-11-22T04:52:27.859Z,38.63
2018-11-22T04:53:33.322Z,35.13
2018-11-22T04:54:38.593Z,38.83
2018-11-22T04:55:43.861Z,41.10
2018-11-22T04:56:49.273Z,38.83
2018-11-22T04:57:57.975Z,39.00
2018-11-22T04:58:59.886Z,40.12
2018-11-22T05:00:08.092Z,35.63
2018-11-22T05:01:13.973Z,44.15
2018-11-22T05:02:19.744Z,38.28
2018-11-22T05:03:25.048Z,36.28
2018-11-22T05:04:30.768Z,37.40
2018-11-22T05:05:36.289Z,36.50
2018-11-22T05:06:41.567Z,39.58
2018-11-22T05:07:46.969Z,40.67
2018-11-22T05:08:52.497Z,37.53
2018-11-22T05:09:58.084Z,42.10
2018-11-22T05:11:03.529Z,37.88
2018-11-22T05:12:08.932Z,35.63
2018-11-22T05:13:14.328Z,35.78
2018-11-22T05:14:19.865Z,38.10
2018-11-22T05:15:26.881Z,39.35
2018-11-22T05:16:32.481Z,41.83
2018-11-22T05:17:38.211Z,36.80
2018-11-22T05:18:43.614Z,39.10
2018-11-22T05:19:48.908Z,39.92
2018-11-22T05:20:54.274Z,34.75
2018-11-22T05:21:59.604Z,40.10
2018-11-22T05:23:04.883Z,41.02
2018-11-22T05:24:10.215Z,37.30
2018-11-22T05:25:15.698Z,35.68
2018-11-22T05:26:21.101Z,36.30
2018-11-22T05:27:26.784Z,40.15
2018-11-22T05:28:32.208Z,36.10
2018-11-22T05:29:38.629Z,37.33
2018-11-22T05:30:44.389Z,39.10
2018-11-22T05:31:49.632Z,39.08
2018-11-22T05:32:55.286Z,40.88
2018-11-22T05:34:00.623Z,43.20
2018-11-22T05:35:08.893Z,38.50
2018-11-22T05:36:14.276Z,35.95
2018-11-22T05:37:20.779Z,46.37
2018-11-22T05:38:26.400Z,37.48
2018-11-22T05:39:31.898Z,42.35
2018-11-22T05:40:37.378Z,37.67
2018-11-22T05:41:43.933Z,42.03
2018-11-22T05:42:48.035Z,39.30
2018-11-22T05:43:53.336Z,49.35
2018-11-22T05:44:58.659Z,44.42
2018-11-22T05:46:03.990Z,40.88
2018-11-22T05:47:09.468Z,40.98
2018-11-22T05:48:14.743Z,37.25
2018-11-22T05:49:20.045Z,39.73
2018-11-22T05:50:26.834Z,37.58
2018-11-22T05:51:33.478Z,44.30
2018-11-22T05:52:38.950Z,41.23
2018-11-22T05:53:44.466Z,45.45
2018-11-22T05:54:50.040Z,36.48
2018-11-22T05:55:55.338Z,42.27
2018-11-22T05:57:00.650Z,40.63
2018-11-22T05:58:06.017Z,39.58
2018-11-22T05:59:14.066Z,44.55
2018-11-22T06:00:21.538Z,38.42
2018-11-22T06:01:27.295Z,38.63
2018-11-22T06:02:32.661Z,43.08
2018-11-22T06:03:38.120Z,38.53
2018-11-22T06:04:43.427Z,45.23
2018-11-22T06:05:48.784Z,42.05
2018-11-22T06:06:55.040Z,36.88
2018-11-22T06:08:01.354Z,43.17
2018-11-22T06:09:09.990Z,38.95
2018-11-22T06:10:22.907Z,39.60
2018-11-22T06:11:28.179Z,40.08
2018-11-22T06:12:33.523Z,42.55
2018-11-22T06:13:38.890Z,43.63
2018-11-22T06:14:44.671Z,43.25
2018-11-22T06:15:50.083Z,40.67
2018-11-22T06:16:55.509Z,45.80
2018-11-22T06:18:01.445Z,43.92
2018-11-22T06:19:06.986Z,48.28
2018-11-22T06:20:14.884Z,48.90
2018-11-22T06:21:20.117Z,43.42
2018-11-22T06:22:25.906Z,46.20
2018-11-22T06:23:31.573Z,36.93
2018-11-22T06:24:39.916Z,43.25
2018-11-22T06:25:45.174Z,39.58
2018-11-22T06:26:51.678Z,41.60
2018-11-22T06:27:57.739Z,36.05
2018-11-22T06:29:02.981Z,36.93
2018-11-22T06:30:19.715Z,43.10
2018-11-22T06:31:25.115Z,42.55
2018-11-22T06:32:30.703Z,44.73
2018-11-22T06:33:37.436Z,44.73
2018-11-22T06:34:42.841Z,40.60
2018-11-22T06:35:48.334Z,41.23
2018-11-22T06:36:53.754Z,39.63
2018-11-22T06:37:59.319Z,41.15
2018-11-22T06:39:05.657Z,43.65
2018-11-22T06:40:13.348Z,42.60
2018-11-22T06:41:18.908Z,39.78
2018-11-22T06:42:24.211Z,40.50
2018-11-22T06:43:29.446Z,40.60
2018-11-22T06:44:35.008Z,45.05
2018-11-22T06:45:40.363Z,56.05
2018-11-22T06:46:45.755Z,37.33
2018-11-22T06:47:51.672Z,41.00
2018-11-22T06:48:57.225Z,42.05
2018-11-22T06:50:02.699Z,44.73
2018-11-22T06:51:08.188Z,46.48
2018-11-22T06:52:13.619Z,43.58
2018-11-22T06:53:19.074Z,43.95
2018-11-22T06:54:24.488Z,45.63
2018-11-22T06:55:31.642Z,40.52
2018-11-22T06:56:36.898Z,46.95
2018-11-22T06:57:43.239Z,45.38
2018-11-22T06:58:48.574Z,48.35
2018-11-22T06:59:53.853Z,51.60
2018-11-22T07:00:59.765Z,42.23
2018-11-22T07:02:05.006Z,46.85
2018-11-22T07:03:10.858Z,43.10
2018-11-22T07:04:16.579Z,41.25
2018-11-22T07:05:23.103Z,44.80
2018-11-22T07:06:28.712Z,46.05
2018-11-22T07:07:34.957Z,40.15
2018-11-22T07:08:40.304Z,41.65
2018-11-22T07:09:45.759Z,45.23
2018-11-22T07:10:53.625Z,46.05
2018-11-22T07:11:59.209Z,47.10
2018-11-22T07:13:04.816Z,45.20
2018-11-22T07:14:10.264Z,42.13
2018-11-22T07:15:16.899Z,42.30
2018-11-22T07:16:22.339Z,42.85
2018-11-22T07:17:27.723Z,47.40
2018-11-22T07:18:33.160Z,49.77
2018-11-22T07:19:38.763Z,47.27
2018-11-22T07:20:44.295Z,44.50
2018-11-22T07:21:49.745Z,41.95
2018-11-22T07:22:57.750Z,51.60
2018-11-22T07:24:03.051Z,50.48
2018-11-22T07:25:12.130Z,47.75
2018-11-22T07:26:17.601Z,45.05
2018-11-22T07:27:23.047Z,41.10
2018-11-22T07:28:28.472Z,50.08
2018-11-22T07:29:33.726Z,46.92
2018-11-22T07:30:42.374Z,44.15
2018-11-22T07:31:44.969Z,43.73
2018-11-22T07:32:50.686Z,44.85
2018-11-22T07:33:55.954Z,46.73
2018-11-22T07:35:01.519Z,65.12
2018-11-22T07:36:07.120Z,45.88
2018-11-22T07:37:12.514Z,44.10
2018-11-22T07:38:17.933Z,44.42
2018-11-22T07:39:23.373Z,42.70
2018-11-22T07:40:30.070Z,45.23
2018-11-22T07:41:35.307Z,54.00
2018-11-22T07:42:40.895Z,44.03
2018-11-22T07:43:46.357Z,44.55
2018-11-22T07:44:51.680Z,45.95
2018-11-22T07:45:56.925Z,41.80
2018-11-22T07:47:02.441Z,45.90
2018-11-22T07:48:08.409Z,42.65
2018-11-22T07:49:13.657Z,49.53
2018-11-22T07:50:21.432Z,53.25
2018-11-22T07:51:26.872Z,48.17
2018-11-22T07:52:32.062Z,52.25
2018-11-22T07:53:37.740Z,50.45
2018-11-22T07:54:42.968Z,47.10
2018-11-22T07:55:48.529Z,67.87
2018-11-22T07:56:53.859Z,75.50
2018-11-22T07:57:59.330Z,51.73
2018-11-22T07:59:04.680Z,42.35
2018-11-22T08:00:15.681Z,44.30
2018-11-22T08:01:21.031Z,55.23
2018-11-22T08:02:26.368Z,43.45
2018-11-22T08:03:31.729Z,47.65
2018-11-22T08:04:36.961Z,51.42
2018-11-22T08:05:43.662Z,43.92
2018-11-22T08:06:49.162Z,45.28
2018-11-22T08:07:54.729Z,47.20
2018-11-22T08:09:00.157Z,45.50
2018-11-22T08:10:08.002Z,48.08
2018-11-22T08:11:13.387Z,51.20
2018-11-22T08:12:25.870Z,44.77
2018-11-22T08:13:24.186Z,36.83
2018-11-22T08:14:29.699Z,46.25
2018-11-22T08:15:36.686Z,43.28
2018-11-22T08:16:42.040Z,46.02
2018-11-22T08:17:47.730Z,43.48
2018-11-22T08:18:53.175Z,46.85
2018-11-22T08:19:58.506Z,50.50
2018-11-22T08:21:04.903Z,52.53
2018-11-22T08:22:09.945Z,46.30
2018-11-22T08:23:15.204Z,46.83
2018-11-22T08:24:20.568Z,45.08
2018-11-22T08:25:26.844Z,55.03
2018-11-22T08:26:32.102Z,47.45
2018-11-22T08:27:37.554Z,48.80
2018-11-22T08:28:43.248Z,49.73
2018-11-22T08:29:48.689Z,45.52
2018-11-22T08:30:54.088Z,44.08
2018-11-22T08:32:01.688Z,49.93
2018-11-22T08:33:07.177Z,52.60
2018-11-22T08:34:12.767Z,44.75
2018-11-22T08:35:18.633Z,43.20
2018-11-22T08:36:23.949Z,47.78
2018-11-22T08:37:29.278Z,45.85
2018-11-22T08:38:34.991Z,40.17
2018-11-22T08:39:40.678Z,43.85
2018-11-22T08:40:45.883Z,46.37
2018-11-22T08:41:51.248Z,44.00
2018-11-22T08:42:56.814Z,50.88
2018-11-22T08:44:02.074Z,42.67
2018-11-22T08:45:08.549Z,43.17
2018-11-22T08:46:13.786Z,49.85
2018-11-22T08:47:19.197Z,46.65
2018-11-22T08:48:24.564Z,41.15
2018-11-22T08:49:29.843Z,45.58
2018-11-22T08:50:35.384Z,49.23
2018-11-22T08:51:41.302Z,44.55
2018-11-22T08:52:47.967Z,42.83
2018-11-22T08:53:53.301Z,47.80
2018-11-22T08:54:58.625Z,45.63
2018-11-22T08:56:03.945Z,45.75
2018-11-22T08:57:09.258Z,42.80
2018-11-22T08:58:14.527Z,41.35
2018-11-22T08:59:19.817Z,46.58
2018-11-22T09:00:26.655Z,51.33
2018-11-22T09:01:32.172Z,45.52
2018-11-22T09:02:37.594Z,46.65
2018-11-22T09:03:42.936Z,52.83
2018-11-22T09:04:48.319Z,45.25
2018-11-22T09:05:53.791Z,45.35
2018-11-22T09:06:59.417Z,45.58
2018-11-22T09:08:04.895Z,47.43
2018-11-22T09:09:11.797Z,41.90
2018-11-22T09:10:18.765Z,43.73
2018-11-22T09:11:24.049Z,44.35
2018-11-22T09:12:29.379Z,45.33
2018-11-22T09:13:34.679Z,50.38
2018-11-22T09:14:40.073Z,42.03
2018-11-22T09:15:45.443Z,45.15
2018-11-22T09:16:50.693Z,48.70
2018-11-22T09:17:55.891Z,50.23
2018-11-22T09:19:01.343Z,40.48
2018-11-22T09:20:08.269Z,38.28
2018-11-22T09:21:13.524Z,43.90
2018-11-22T09:22:19.004Z,41.30
2018-11-22T09:23:24.647Z,46.80
2018-11-22T09:24:30.063Z,42.08
2018-11-22T09:25:36.646Z,45.12
2018-11-22T09:26:42.252Z,48.13
2018-11-22T09:27:47.757Z,44.90
2018-11-22T09:28:53.399Z,49.33
2018-11-22T09:29:58.861Z,43.92
2018-11-22T09:31:04.324Z,46.65
2018-11-22T09:32:09.693Z,41.90
2018-11-22T09:33:14.974Z,44.25
2018-11-22T09:34:20.453Z,48.33
2018-11-22T09:35:27.173Z,44.30
2018-11-22T09:36:32.561Z,42.13
2018-11-22T09:37:38.150Z,47.40
2018-11-22T09:38:43.363Z,48.17
2018-11-22T09:39:49.602Z,51.08
2018-11-22T09:40:54.978Z,44.08
2018-11-22T09:42:01.353Z,46.65
2018-11-22T09:43:06.989Z,40.52
2018-11-22T09:44:12.700Z,42.40
2018-11-22T09:45:24.189Z,40.45
2018-11-22T09:46:29.614Z,43.33
2018-11-22T09:47:35.320Z,47.88
2018-11-22T09:48:40.895Z,41.55
2018-11-22T09:49:46.165Z,38.55
2018-11-22T09:50:52.463Z,42.10
2018-11-22T09:51:58.247Z,50.60
2018-11-22T09:53:05.174Z,44.27
2018-11-22T09:54:10.805Z,39.95
2018-11-22T09:55:34.537Z,46.92
2018-11-22T09:56:58.566Z,47.20
2018-11-22T09:58:04.204Z,37.13
2018-11-22T09:59:09.525Z,41.23
2018-11-22T10:00:17.685Z,47.23
2018-11-22T10:01:23.058Z,43.20
2018-11-22T10:02:28.522Z,41.28
2018-11-22T10:03:33.879Z,42.10
2018-11-22T10:04:39.349Z,43.23
2018-11-22T10:05:44.762Z,43.48
2018-11-22T10:06:51.473Z,42.62
2018-11-22T10:07:56.761Z,41.73
2018-11-22T10:09:21.060Z,42.73
2018-11-22T10:10:41.132Z,37.35
2018-11-22T10:11:47.260Z,42.38
2018-11-22T10:12:52.654Z,41.90
2018-11-22T10:13:58.008Z,51.08
2018-11-22T10:15:03.410Z,45.58
2018-11-22T10:16:08.867Z,45.28
2018-11-22T10:17:14.271Z,41.68
2018-11-22T10:18:19.637Z,42.15
2018-11-22T10:19:25.273Z,43.90
2018-11-22T10:20:30.788Z,42.85
2018-11-22T10:21:36.217Z,40.63
2018-11-22T10:22:43.967Z,42.23
2018-11-22T10:23:49.364Z,39.85
2018-11-22T10:24:54.989Z,39.20
2018-11-22T10:26:00.336Z,40.00
2018-11-22T10:27:05.790Z,43.42
2018-11-22T10:28:11.084Z,47.15
2018-11-22T10:29:35.130Z,44.33
2018-11-22T10:30:58.628Z,39.35
2018-11-22T10:32:04.654Z,38.33
2018-11-22T10:33:10.206Z,40.00
2018-11-22T10:34:15.200Z,43.87
2018-11-22T10:35:39.355Z,45.65
2018-11-22T10:37:03.011Z,40.70
2018-11-22T10:38:26.770Z,43.50
2018-11-22T10:39:50.920Z,40.98
2018-11-22T10:41:14.645Z,48.30
2018-11-22T10:42:20.171Z,49.10
2018-11-22T10:43:25.255Z,38.38
2018-11-22T10:44:49.079Z,40.75
2018-11-22T10:46:13.206Z,42.88
2018-11-22T10:47:37.735Z,43.75
2018-11-22T10:49:01.503Z,48.13
2018-11-22T12:15:55.640Z,40.85
2018-11-22T12:16:59.680Z,39.48
2018-11-22T12:18:03.717Z,40.17
2018-11-22T12:19:12.125Z,41.60
2018-11-22T12:20:16.972Z,43.63
2018-11-22T12:21:21.090Z,46.13
2018-11-22T12:22:25.137Z,49.15
2018-11-22T12:23:29.200Z,45.38
2018-11-22T12:24:33.381Z,44.25
2018-11-22T12:25:37.669Z,40.05
2018-11-22T12:26:41.768Z,42.60
2018-11-22T12:27:47.608Z,39.38
2018-11-22T12:28:51.665Z,46.08
2018-11-22T12:29:55.775Z,51.02
2018-11-22T12:31:06.398Z,44.63
2018-11-22T12:32:09.228Z,39.80
2018-11-22T12:33:19.529Z,42.90
2018-11-22T12:34:28.730Z,42.53
2018-11-22T12:35:38.158Z,39.20
2018-11-22T12:36:47.518Z,37.83
2018-11-22T12:37:56.961Z,40.15
2018-11-22T12:39:01.051Z,40.70
2018-11-22T12:40:07.944Z,52.27
2018-11-22T12:41:12.065Z,43.92
2018-11-22T12:42:16.121Z,42.90
2018-11-22T12:43:21.247Z,48.10
2018-11-22T12:44:25.399Z,43.63
2018-11-22T12:45:29.825Z,41.88
2018-11-22T12:46:33.896Z,44.15
2018-11-22T12:47:37.917Z,40.83
2018-11-22T12:48:42.541Z,38.80
2018-11-22T12:49:46.654Z,40.33
2018-11-22T12:50:50.758Z,40.55
2018-11-22T12:51:54.909Z,41.53
2018-11-22T12:52:59.046Z,38.58
2018-11-22T12:54:03.114Z,34.08
2018-11-22T12:55:08.637Z,39.83
2018-11-22T12:56:12.783Z,40.28
2018-11-22T12:57:16.791Z,44.90
2018-11-22T12:58:21.344Z,40.08
2018-11-22T12:59:25.433Z,41.23
2018-11-22T13:00:29.487Z,36.77
2018-11-22T13:01:33.615Z,41.18
2018-11-22T13:02:37.740Z,40.78
2018-11-22T13:03:41.780Z,46.50
2018-11-22T13:04:45.822Z,39.90
2018-11-22T13:05:49.923Z,42.80
2018-11-22T13:06:53.969Z,52.53
2018-11-22T13:07:58.037Z,45.67
2018-11-22T13:09:02.069Z,41.42
2018-11-22T13:10:07.859Z,47.58
2018-11-22T13:11:11.878Z,41.30
2018-11-22T13:12:15.936Z,40.15
2018-11-22T13:13:20.000Z,41.92
2018-11-22T13:14:24.015Z,43.10
2018-11-22T13:15:28.125Z,38.88
2018-11-22T13:16:32.535Z,55.85
2018-11-22T13:17:36.596Z,38.17
2018-11-22T13:18:40.665Z,46.08
2018-11-22T13:19:44.774Z,36.83
2018-11-22T13:20:48.810Z,37.85
2018-11-22T13:21:52.864Z,40.48
2018-11-22T13:22:56.989Z,45.17
2018-11-22T13:24:01.157Z,38.53
2018-11-22T13:25:06.359Z,41.40
2018-11-22T13:26:10.650Z,43.60
2018-11-22T13:27:14.651Z,39.27
2018-11-22T13:28:18.771Z,42.85
2018-11-22T13:29:22.840Z,45.30
2018-11-22T13:30:28.085Z,36.20
2018-11-22T13:31:32.114Z,43.35
2018-11-22T13:32:36.233Z,37.55
2018-11-22T13:33:40.351Z,41.80
2018-11-22T13:34:44.539Z,35.98
2018-11-22T13:35:48.646Z,44.45
2018-11-22T13:36:52.734Z,41.80
2018-11-22T13:37:57.211Z,43.80
2018-11-22T13:39:01.269Z,43.45
2018-11-22T13:40:06.633Z,43.08
2018-11-22T13:41:10.782Z,41.70
2018-11-22T13:42:14.825Z,43.60
2018-11-22T13:43:18.828Z,40.48
2018-11-22T13:44:23.209Z,37.95
2018-11-22T13:45:29.241Z,49.25
2018-11-22T13:46:34.469Z,47.95
2018-11-22T13:47:40.052Z,40.63
2018-11-22T13:48:44.094Z,41.33
2018-11-22T13:49:48.225Z,44.18
2018-11-22T13:50:52.293Z,43.15
2018-11-22T13:51:56.331Z,42.33
2018-11-22T13:53:03.880Z,44.45
2018-11-22T13:54:07.913Z,34.30
2018-11-22T13:55:12.108Z,42.40
2018-11-22T13:56:16.190Z,43.42
2018-11-22T13:57:20.246Z,40.67
2018-11-22T13:58:24.302Z,35.65
2018-11-22T13:59:28.372Z,39.27
2018-11-22T14:00:33.574Z,42.95
2018-11-22T14:01:37.698Z,43.02
2018-11-22T14:02:42.189Z,39.83
2018-11-22T14:03:46.188Z,51.13
2018-11-22T14:04:50.255Z,37.38
2018-11-22T14:05:54.352Z,44.70
2018-11-22T14:06:58.713Z,41.80
2018-11-22T14:08:02.797Z,40.55
2018-11-22T14:09:08.560Z,41.30
2018-11-22T14:10:17.126Z,38.65
2018-11-22T14:11:22.337Z,43.20
2018-11-22T14:12:26.398Z,36.23
2018-11-22T14:13:30.395Z,43.92
2018-11-22T14:14:34.593Z,41.30
2018-11-22T14:15:38.690Z,39.83
2018-11-22T14:16:42.874Z,37.65
2018-11-22T14:17:47.484Z,43.63
2018-11-22T14:18:51.781Z,37.38
2018-11-22T14:19:55.741Z,41.18
2018-11-22T14:20:59.880Z,38.00
2018-11-22T14:22:04.073Z,32.80
2018-11-22T14:23:08.155Z,37.28
2018-11-22T14:24:12.292Z,41.53
2018-11-22T14:25:16.964Z,39.18
2018-11-22T14:26:21.058Z,42.67
2018-11-22T14:27:25.189Z,40.20
2018-11-22T14:28:29.254Z,40.50
2018-11-22T14:29:35.480Z,37.00
2018-11-22T14:30:39.543Z,37.45
2018-11-22T14:31:43.788Z,43.23
2018-11-22T14:32:49.023Z,39.85
2018-11-22T14:33:53.446Z,36.53
2018-11-22T14:35:00.524Z,36.03
2018-11-22T14:36:01.790Z,38.73
2018-11-22T14:37:05.937Z,42.00
2018-11-22T14:38:10.007Z,47.27
2018-11-22T14:39:14.057Z,39.18
2018-11-22T14:40:20.573Z,36.48
2018-11-22T14:41:24.660Z,36.55
2018-11-22T14:42:28.818Z,40.43
2018-11-22T14:43:33.109Z,36.85
2018-11-22T14:44:37.191Z,42.30
2018-11-22T14:45:41.270Z,44.03
2018-11-22T14:46:45.320Z,39.13
2018-11-22T14:47:50.230Z,39.33
2018-11-22T14:48:54.293Z,43.17
2018-11-22T14:49:58.378Z,40.67
2018-11-22T14:51:07.083Z,43.02
2018-11-22T14:52:11.382Z,34.98
2018-11-22T14:53:17.368Z,40.03
2018-11-22T14:54:21.414Z,39.92
2018-11-22T14:55:25.477Z,36.70
2018-11-22T14:56:29.581Z,51.50
2018-11-22T14:57:33.671Z,42.15
2018-11-22T14:58:37.754Z,37.45
2018-11-22T14:59:42.178Z,35.17
2018-11-22T15:00:46.232Z,36.95
2018-11-22T15:01:50.249Z,38.10
2018-11-22T15:02:54.297Z,37.17
2018-11-22T15:03:58.380Z,41.92
2018-11-22T15:05:02.486Z,46.00
2018-11-22T15:06:06.592Z,32.63
2018-11-22T15:07:11.505Z,35.38
2018-11-22T15:08:15.490Z,34.33
2018-11-22T15:09:19.553Z,32.98
2018-11-22T15:10:23.589Z,35.63
2018-11-22T15:11:27.709Z,38.45
2018-11-22T15:12:31.770Z,45.52
2018-11-22T15:13:35.791Z,38.02
2018-11-22T15:14:40.396Z,36.40
2018-11-22T15:15:44.509Z,38.88
2018-11-22T15:16:48.560Z,42.45
2018-11-22T15:17:52.644Z,33.13
2018-11-22T15:18:56.707Z,39.95
2018-11-22T15:20:00.867Z,35.30
2018-11-22T15:21:05.238Z,35.40
2018-11-22T15:22:09.306Z,39.08
2018-11-22T15:23:13.333Z,33.35
2018-11-22T15:24:17.614Z,37.48
2018-11-22T15:25:23.014Z,37.63
2018-11-22T15:26:27.276Z,34.38
2018-11-22T15:27:31.310Z,36.60
2018-11-22T15:28:35.394Z,34.43
2018-11-22T15:29:39.516Z,34.23
2018-11-22T15:30:43.616Z,39.33
2018-11-22T15:31:47.777Z,34.27
2018-11-22T15:32:52.067Z,40.52
2018-11-22T15:33:56.404Z,41.85